Time;durP1;ratioP1;P1;durP2;ratioP2;P2;SDS_P1;SDS_P2;PMS_P1;PMS_P2;Temp;Humidity;BMP_temperature;BMP_pressure;BME280_temperature;BME280_humidity;BME280_pressure;Samples;Min_cycle;Max_cycle;Signal;HPM_P1;HPM_P2
2021/08/26 00:06:49;;;;;;;2.55;2.00;;;;;;;16.24;100.00;101544.91;10458056;28;20045;-64
2021/08/26 00:11:54;;;;;;;3.45;2.40;;;;;;;16.14;100.00;101538.56;10458384;28;20402;-66
2021/08/26 00:16:56;;;;;;;3.38;2.10;;;;;;;16.55;100.00;101533.97;10456198;28;20497;-65
2021/08/26 00:21:59;;;;;;;4.07;2.30;;;;;;;16.27;100.00;101526.19;10457589;28;20079;-65
2021/08/26 00:27:01;;;;;;;1.98;1.77;;;;;;;16.41;100.00;101519.94;10456831;28;20049;-65
2021/08/26 00:32:04;;;;;;;4.30;2.65;;;;;;;16.31;100.00;101521.53;10457423;28;20045;-65
2021/08/26 00:37:06;;;;;;;5.07;2.60;;;;;;;16.40;100.00;101515.59;10456597;28;20067;-65
2021/08/26 00:42:08;;;;;;;5.40;1.83;;;;;;;16.22;100.00;101509.78;10456850;28;20044;-67
2021/08/26 00:47:11;;;;;;;5.07;2.60;;;;;;;16.20;100.00;101509.06;10456627;28;20051;-67
2021/08/26 00:52:13;;;;;;;2.75;1.65;;;;;;;16.22;100.00;101514.25;10456993;28;20045;-66
2021/08/26 00:57:15;;;;;;;5.40;1.80;;;;;;;16.06;100.00;101502.09;10456670;28;20049;-64
2021/08/26 01:02:36;;;;;;;3.70;2.40;;;;;;;16.04;100.00;101500.50;10457008;28;20045;-66
2021/08/26 01:07:47;;;;;;;3.40;2.15;;;;;;;16.09;100.00;101509.81;10456601;28;20049;-66
2021/08/26 01:12:53;;;;;;;2.47;1.60;;;;;;;16.20;100.00;101495.03;10455030;28;20489;-66
2021/08/26 01:17:56;;;;;;;6.80;2.83;;;;;;;15.93;100.00;101490.69;10456202;28;20060;-66
2021/08/26 01:22:58;;;;;;;9.40;2.70;;;;;;;15.94;100.00;101481.84;10456962;28;20064;-66
2021/08/26 01:28:05;;;;;;;5.07;2.20;;;;;;;16.06;100.00;101477.50;10456173;28;20045;-68
2021/08/26 01:33:07;;;;;;;4.65;2.28;;;;;;;16.05;100.00;101481.91;10455921;28;20413;-65
2021/08/26 01:38:09;;;;;;;6.25;2.80;;;;;;;16.25;100.00;101472.59;10454546;28;20049;-65
2021/08/26 01:43:16;;;;;;;5.10;2.83;;;;;;;16.23;100.00;101481.59;10455760;28;20076;-66
2021/08/26 01:48:20;;;;;;;7.30;2.03;;;;;;;16.11;100.00;101478.84;10455990;28;20041;-66
2021/08/26 01:53:22;;;;;;;5.60;2.50;;;;;;;16.08;100.00;101479.06;10454936;28;20516;-66
2021/08/26 01:58:25;;;;;;;3.90;2.22;;;;;;;16.00;100.00;101477.91;10455570;28;20049;-64
2021/08/26 02:03:27;;;;;;;7.80;2.33;;;;;;;16.06;100.00;101480.97;10462911;28;20436;-65
2021/08/26 02:08:29;;;;;;;5.30;2.20;;;;;;;15.95;100.00;101479.09;10462678;28;20049;-66
2021/08/26 02:13:31;;;;;;;4.57;2.10;;;;;;;15.91;100.00;101476.75;10462791;28;20045;-65
2021/08/26 02:18:34;;;;;;;5.82;2.38;;;;;;;15.92;100.00;101475.78;10462298;28;20060;-67
2021/08/26 02:23:36;;;;;;;5.72;2.63;;;;;;;15.97;100.00;101471.91;10461867;28;20521;-67
2021/08/26 02:28:38;;;;;;;7.35;2.97;;;;;;;15.96;100.00;101479.94;10461293;28;20052;-67
2021/08/26 02:33:42;;;;;;;5.78;2.45;;;;;;;16.06;100.00;101467.78;10462339;28;20045;-68
2021/08/26 02:38:44;;;;;;;8.60;3.28;;;;;;;15.74;100.00;101472.63;10460270;28;20048;-66
2021/08/26 02:43:46;;;;;;;9.70;3.63;;;;;;;15.38;100.00;101476.78;10461476;28;20083;-65
2021/08/26 02:48:49;;;;;;;8.52;3.47;;;;;;;15.88;100.00;101474.34;10461127;28;20041;-67
2021/08/26 02:53:51;;;;;;;10.65;3.65;;;;;;;15.72;100.00;101464.81;10461189;28;20048;-66
2021/08/26 02:58:53;;;;;;;13.75;3.85;;;;;;;15.40;100.00;101462.56;10461013;28;20084;-68
2021/08/26 03:03:55;;;;;;;13.40;4.07;;;;;;;15.55;100.00;101459.81;10460861;28;20048;-65
2021/08/26 03:08:58;;;;;;;23.08;5.65;;;;;;;15.39;100.00;101476.69;10460110;28;20079;-66
2021/08/26 03:14:01;;;;;;;18.98;4.60;;;;;;;15.44;100.00;101472.91;10459565;28;20045;-68
2021/08/26 03:19:03;;;;;;;13.02;4.53;;;;;;;15.42;100.00;101476.47;10459858;28;20078;-67
2021/08/26 03:24:06;;;;;;;15.25;4.55;;;;;;;15.65;100.00;101468.81;10459645;28;20048;-66
2021/08/26 03:29:08;;;;;;;10.35;4.25;;;;;;;15.11;100.00;101464.47;10459578;28;20045;-66
2021/08/26 03:34:10;;;;;;;14.10;4.72;;;;;;;14.94;100.00;101465.59;10459261;28;20500;-66
2021/08/26 03:39:13;;;;;;;17.35;5.72;;;;;;;15.26;100.00;101457.34;10459045;28;20057;-65
2021/08/26 03:44:15;;;;;;;14.20;4.80;;;;;;;15.22;100.00;101459.34;10459106;28;20045;-65
2021/08/26 03:49:18;;;;;;;16.25;4.80;;;;;;;15.44;100.00;101455.28;10458422;28;20060;-66
2021/08/26 03:54:20;;;;;;;20.10;5.63;;;;;;;15.11;100.00;101471.53;10458567;28;20048;-65
2021/08/26 03:59:22;;;;;;;16.00;5.53;;;;;;;15.36;100.00;101476.03;10458805;28;20045;-66
2021/08/26 04:04:25;;;;;;;11.15;5.10;;;;;;;15.20;100.00;101470.97;10458381;28;20052;-66
2021/08/26 04:09:27;;;;;;;16.88;4.68;;;;;;;15.31;100.00;101476.34;10457466;28;20417;-66
2021/08/26 04:14:29;;;;;;;17.23;5.60;;;;;;;15.27;100.00;101464.31;10457810;28;20481;-66
2021/08/26 04:19:32;;;;;;;16.08;4.38;;;;;;;15.36;100.00;101455.78;10457518;28;20055;-65
2021/08/26 04:24:34;;;;;;;18.92;5.38;;;;;;;15.41;100.00;101460.75;10457122;28;20505;-65
2021/08/26 04:29:37;;;;;;;13.32;3.97;;;;;;;15.15;100.00;101449.31;10457426;28;20045;-64
2021/08/26 04:34:39;;;;;;;16.88;4.47;;;;;;;14.93;100.00;101455.13;10457070;28;20048;-65
2021/08/26 04:39:41;;;;;;;14.90;5.30;;;;;;;14.65;100.00;101449.88;10457462;28;20045;-66
2021/08/26 04:44:44;;;;;;;18.67;5.93;;;;;;;14.62;100.00;101446.59;10457033;28;20044;-65
2021/08/26 04:49:46;;;;;;;19.55;4.80;;;;;;;14.71;100.00;101431.97;10456539;28;20057;-66
2021/08/26 04:54:48;;;;;;;14.95;4.07;;;;;;;14.61;100.00;101439.66;10456750;28;20048;-65
2021/08/26 04:59:50;;;;;;;13.55;3.88;;;;;;;14.62;100.00;101444.78;10457013;28;20055;-66
2021/08/26 05:04:53;;;;;;;17.98;5.13;;;;;;;14.62;100.00;101438.69;10456790;28;20051;-66
2021/08/26 05:09:55;;;;;;;15.77;4.30;;;;;;;14.59;100.00;101434.47;10456102;28;20505;-65
2021/08/26 05:14:57;;;;;;;16.85;3.58;;;;;;;14.67;100.00;101431.31;10456104;28;20064;-65
2021/08/26 05:20:00;;;;;;;13.63;4.32;;;;;;;14.72;100.00;101431.88;10455870;28;20060;-63
2021/08/26 05:25:02;;;;;;;14.32;4.03;;;;;;;14.55;100.00;101440.81;10456398;28;20060;-66
2021/08/26 05:30:05;;;;;;;17.63;4.00;;;;;;;14.79;100.00;101430.53;10455646;28;20055;-66
2021/08/26 05:35:08;;;;;;;13.95;3.63;;;;;;;14.74;100.00;101442.31;10459398;28;20072;-67
2021/08/26 05:40:10;;;;;;;14.52;4.22;;;;;;;14.85;100.00;101432.75;10463720;28;20082;-66
2021/08/26 05:45:13;;;;;;;16.05;4.55;;;;;;;14.78;100.00;101438.56;10463722;28;20056;-67
2021/08/26 05:50:15;;;;;;;17.00;3.70;;;;;;;15.04;100.00;101435.03;10463299;28;20068;-66
2021/08/26 05:55:18;;;;;;;12.95;4.10;;;;;;;14.81;100.00;101440.97;10463389;28;20052;-65
2021/08/26 06:00:21;;;;;;;11.73;4.38;;;;;;;14.90;100.00;101427.19;10463574;28;20056;-65
2021/08/26 06:05:23;;;;;;;14.57;4.63;;;;;;;14.97;100.00;101436.38;10462978;28;20048;-68
2021/08/26 06:10:26;;;;;;;12.05;3.13;;;;;;;14.99;100.00;101431.00;10462805;28;20048;-67
2021/08/26 06:15:28;;;;;;;19.77;4.35;;;;;;;14.98;100.00;101430.19;10462412;28;20374;-67
2021/08/26 06:20:30;;;;;;;12.02;3.13;;;;;;;15.26;100.00;101428.31;10461826;28;20444;-67
2021/08/26 06:25:33;;;;;;;13.82;3.17;;;;;;;15.18;100.00;101428.84;10462575;28;20048;-67
2021/08/26 06:30:35;;;;;;;9.52;2.70;;;;;;;15.40;100.00;101430.88;10461939;28;20049;-66
2021/08/26 06:35:38;;;;;;;14.80;3.38;;;;;;;15.52;100.00;101433.66;10461600;28;20053;-66
2021/08/26 06:40:40;;;;;;;11.77;3.28;;;;;;;15.67;100.00;101434.38;10461750;28;20056;-67
2021/08/26 06:45:43;;;;;;;13.15;3.35;;;;;;;15.66;100.00;101430.91;10461279;28;20060;-67
2021/08/26 06:50:46;;;;;;;16.35;3.58;;;;;;;15.40;100.00;101427.41;10461279;28;20079;-66
2021/08/26 06:55:48;;;;;;;16.02;3.15;;;;;;;15.38;100.00;101430.16;10460567;28;20056;-65
2021/08/26 07:00:50;;;;;;;9.35;3.05;;;;;;;15.87;100.00;101428.59;10460855;28;20068;-65
2021/08/26 07:05:53;;;;;;;12.68;2.83;;;;;;;16.19;97.96;101429.91;10460272;28;20095;-68
2021/08/26 07:10:55;;;;;;;10.45;2.40;;;;;;;16.32;96.12;101426.31;10460304;28;20048;-67
2021/08/26 07:15:57;;;;;;;11.18;2.50;;;;;;;16.40;95.73;101438.94;10460582;28;20049;-66
2021/08/26 07:21:00;;;;;;;12.48;2.90;;;;;;;16.21;96.60;101428.03;10459602;28;20095;-67
2021/08/26 07:26:08;;;;;;;9.13;2.17;;;;;;;16.07;95.92;101444.84;10460033;28;20048;-67
2021/08/26 07:31:11;;;;;;;7.90;1.98;;;;;;;16.05;96.91;101442.31;10459606;28;20049;-67
2021/08/26 07:36:13;;;;;;;10.30;1.92;;;;;;;15.91;97.93;101443.28;10459153;28;20484;-69
2021/08/26 07:41:16;;;;;;;10.70;2.35;;;;;;;16.63;93.72;101439.09;10459077;28;20409;-66
2021/08/26 07:46:18;;;;;;;7.05;1.83;;;;;;;16.38;97.25;101445.31;10458715;28;20398;-69
2021/08/26 07:51:20;;;;;;;4.72;1.90;;;;;;;16.32;98.92;101441.31;10459239;28;20539;-68
2021/08/26 07:56:23;;;;;;;7.22;2.72;;;;;;;16.41;99.75;101450.34;10458062;28;20056;-67
2021/08/26 08:01:25;;;;;;;7.28;1.83;;;;;;;16.33;100.00;101449.13;10458508;28;20045;-68
2021/08/26 08:06:28;;;;;;;6.97;1.85;;;;;;;16.35;100.00;101449.84;10456874;28;20048;-69
2021/08/26 08:11:30;;;;;;;6.35;2.13;;;;;;;16.06;100.00;101451.91;10457827;28;20504;-67
2021/08/26 08:16:36;;;;;;;8.45;2.20;;;;;;;16.21;100.00;101438.59;10458582;28;20107;-67
2021/08/26 08:21:39;;;;;;;8.30;2.40;;;;;;;16.63;100.00;101444.41;10457248;28;20057;-67
2021/08/26 08:26:41;;;;;;;5.80;2.40;;;;;;;17.23;100.00;101435.53;10457708;28;20049;-68
2021/08/26 08:31:43;;;;;;;11.65;2.47;;;;;;;18.12;97.59;101434.94;10456949;28;20051;-68
2021/08/26 08:36:46;;;;;;;15.98;2.92;;;;;;;17.75;96.54;101427.19;10457574;28;20060;-69
2021/08/26 08:41:48;;;;;;;5.97;2.00;;;;;;;17.48;93.31;101423.06;10457104;28;20059;-68
2021/08/26 08:46:59;;;;;;;8.20;2.13;;;;;;;17.30;93.56;101428.00;10457071;28;20049;-66
2021/08/26 08:52:02;;;;;;;11.30;2.78;;;;;;;17.35;96.98;101443.50;10456937;28;20049;-67
2021/08/26 08:57:05;;;;;;;7.20;2.22;;;;;;;16.26;100.00;101447.88;10455373;28;20055;-67
2021/08/26 09:02:07;;;;;;;11.93;3.33;;;;;;;15.67;100.00;101444.94;10456408;28;20489;-67
2021/08/26 09:07:24;;;;;;;8.90;2.55;;;;;;;15.72;100.00;101433.13;10456266;28;20055;-66
2021/08/26 09:12:41;;;;;;;10.88;3.03;;;;;;;17.07;100.00;101429.72;10463423;28;20501;-66
2021/08/26 09:17:45;;;;;;;7.30;2.95;;;;;;;17.44;100.00;101432.22;10464682;28;20397;-66
2021/08/26 09:22:48;;;;;;;7.22;2.63;;;;;;;17.69;100.00;101430.34;10465029;28;20049;-65
2021/08/26 09:27:50;;;;;;;4.70;1.90;;;;;;;18.53;100.00;101436.09;10464280;28;20076;-67
2021/08/26 09:33:00;;;;;;;5.78;1.90;;;;;;;19.45;94.87;101420.50;10464324;28;20095;-66
2021/08/26 09:38:06;;;;;;;4.47;1.83;;;;;;;19.60;91.28;101412.19;10462893;28;20049;-66
2021/08/26 09:43:08;;;;;;;5.90;2.25;;;;;;;19.02;92.94;101410.03;10464121;28;20056;-68
2021/08/26 09:48:16;;;;;;;4.72;2.03;;;;;;;20.50;85.92;101415.88;10463467;28;20120;-68
2021/08/26 09:53:25;;;;;;;6.40;1.83;;;;;;;18.55;91.47;101419.06;10464331;28;20049;-67
2021/08/26 09:58:35;;;;;;;10.00;2.78;;;;;;;18.11;91.50;101425.31;10463537;28;20049;-67
2021/08/26 10:03:38;;;;;;;5.93;2.10;;;;;;;19.07;90.63;101413.97;10463102;28;20481;-67
2021/08/26 10:08:46;;;;;;;9.50;2.15;;;;;;;19.04;89.74;101419.53;10462881;28;20049;-67
2021/08/26 10:13:50;;;;;;;4.95;1.70;;;;;;;18.31;89.79;101431.69;10462819;28;20048;-66
2021/08/26 10:18:52;;;;;;;5.45;1.90;;;;;;;18.51;89.32;101433.56;10462540;28;20049;-66
2021/08/26 10:23:54;;;;;;;7.75;2.13;;;;;;;18.31;91.57;101436.97;10460592;28;20435;-67
2021/08/26 10:28:58;;;;;;;9.18;2.45;;;;;;;18.36;88.71;101438.28;10460537;28;20489;-67
2021/08/26 10:34:29;;;;;;;8.30;2.08;;;;;;;18.54;90.39;101437.75;10460992;28;20048;-66
2021/08/26 10:39:36;;;;;;;10.98;2.72;;;;;;;18.64;85.60;101441.34;10462192;28;20056;-66
2021/08/26 10:44:57;;;;;;;9.23;3.13;;;;;;;19.66;82.25;101427.59;10461708;28;20052;-66
2021/08/26 10:50:17;;;;;;;6.65;2.17;;;;;;;19.17;86.77;101432.63;10462319;28;20060;-67
2021/08/26 10:55:33;;;;;;;8.52;2.50;;;;;;;19.58;82.59;101433.56;10460009;28;20049;-67
2021/08/26 11:00:42;;;;;;;9.02;2.35;;;;;;;18.57;84.41;101435.69;10460711;28;20404;-65
2021/08/26 11:05:47;;;;;;;9.18;2.80;;;;;;;17.88;100.00;101450.97;10459944;28;20084;-67
2021/08/26 11:10:50;;;;;;;8.05;3.17;;;;;;;17.54;100.00;101435.00;10460302;28;20504;-67
2021/08/26 11:15:52;;;;;;;8.80;2.50;;;;;;;17.56;100.00;101435.72;10460155;28;20396;-66
2021/08/26 11:20:56;;;;;;;10.65;3.38;;;;;;;17.95;100.00;101433.63;10459690;28;20496;-66
2021/08/26 11:25:58;;;;;;;10.50;3.30;;;;;;;19.05;97.96;101431.81;10460127;28;20049;-66
2021/08/26 11:31:17;;;;;;;7.57;3.20;;;;;;;20.23;93.02;101426.16;10457736;28;20401;-67
2021/08/26 11:36:20;;;;;;;11.90;3.00;;;;;;;20.32;84.97;101429.81;10459528;28;20053;-66
2021/08/26 11:41:23;;;;;;;10.38;3.20;;;;;;;20.99;86.42;101415.94;10459302;28;20045;-66
2021/08/26 11:46:26;;;;;;;7.80;3.22;;;;;;;22.26;77.98;101419.88;10457681;28;20417;-67
2021/08/26 11:51:30;;;;;;;13.27;4.60;;;;;;;21.95;78.83;101419.34;10457805;28;20048;-67
2021/08/26 11:56:45;;;;;;;15.05;3.22;;;;;;;22.87;73.13;101412.16;10459041;28;20045;-65
2021/08/26 12:01:48;;;;;;;9.73;2.78;;;;;;;22.87;72.88;101403.34;10458561;28;20052;-65
2021/08/26 12:06:50;;;;;;;8.90;2.47;;;;;;;21.87;77.18;101412.09;10456967;28;20400;-65
2021/08/26 12:11:53;;;;;;;9.32;2.95;;;;;;;23.57;70.39;101406.03;10457238;28;20056;-66
2021/08/26 12:16:56;;;;;;;8.18;3.17;;;;;;;22.31;72.79;101408.81;10457950;28;20049;-66
2021/08/26 12:21:58;;;;;;;10.70;3.55;;;;;;;21.39;78.48;101409.56;10458041;28;20064;-66
2021/08/26 12:27:08;;;;;;;12.93;3.65;;;;;;;20.35;78.75;101396.81;10456293;28;20049;-66
2021/08/26 12:32:34;;;;;;;7.70;2.90;;;;;;;20.18;75.75;101399.16;10457857;28;20048;-66
2021/08/26 12:37:48;;;;;;;8.25;3.05;;;;;;;22.69;67.25;101385.47;10457257;28;20079;-66
2021/08/26 12:43:05;;;;;;;11.48;4.25;;;;;;;21.67;70.66;101398.00;10456832;28;20045;-67
2021/08/26 12:48:27;;;;;;;12.13;3.80;;;;;;;21.89;68.96;101399.44;10456653;28;20052;-66
2021/08/26 12:53:29;;;;;;;10.82;3.58;;;;;;;21.80;68.07;101396.81;10457217;28;20044;-66
2021/08/26 12:58:32;;;;;;;14.13;3.60;;;;;;;24.26;65.35;101384.59;10456438;28;20048;-66
2021/08/26 13:03:50;;;;;;;12.80;3.80;;;;;;;23.52;61.57;101384.28;10456512;28;20477;-66
2021/08/26 13:08:52;;;;;;;11.38;3.58;;;;;;;24.18;62.17;101389.94;10456373;28;20055;-66
2021/08/26 13:13:54;;;;;;;12.43;4.22;;;;;;;22.99;66.96;101378.88;10456620;28;20045;-67
2021/08/26 13:18:57;;;;;;;12.32;4.07;;;;;;;22.64;65.47;101385.09;10456105;28;20068;-66
2021/08/26 13:24:00;;;;;;;11.27;4.00;;;;;;;22.79;66.92;101386.22;10456179;28;20382;-66
2021/08/26 13:29:03;;;;;;;12.02;3.50;;;;;;;21.77;68.30;101387.31;10455712;28;20045;-67
2021/08/26 13:34:05;;;;;;;10.60;3.33;;;;;;;22.16;71.20;101389.78;10456514;28;20400;-67
2021/08/26 13:39:07;;;;;;;13.55;4.22;;;;;;;22.86;64.64;101378.44;10455907;28;20064;-67
2021/08/26 13:44:10;;;;;;;10.32;2.95;;;;;;;24.02;61.18;101383.50;10455694;28;20507;-66
2021/08/26 13:49:12;;;;;;;14.10;4.35;;;;;;;23.92;58.10;101369.44;10455892;28;20045;-65
2021/08/26 13:54:15;;;;;;;9.55;3.60;;;;;;;24.62;57.97;101365.59;10455551;28;20045;-69
2021/08/26 13:59:18;;;;;;;9.90;3.47;;;;;;;23.39;64.43;101363.34;10463143;28;20048;-67
2021/08/26 14:04:20;;;;;;;11.77;3.33;;;;;;;22.53;64.52;101367.50;10463108;28;20048;-67
2021/08/26 14:09:23;;;;;;;10.07;3.08;;;;;;;22.63;63.90;101362.09;10462783;28;20049;-66
2021/08/26 14:14:25;;;;;;;9.10;3.42;;;;;;;21.92;64.36;101357.50;10463282;28;20041;-68
2021/08/26 14:19:27;;;;;;;12.25;3.05;;;;;;;21.70;69.74;101357.75;10462538;28;20061;-67
2021/08/26 14:24:30;;;;;;;9.82;3.60;;;;;;;22.77;65.77;101350.84;10462779;28;20057;-67
2021/08/26 14:29:32;;;;;;;17.85;4.22;;;;;;;23.11;63.26;101351.97;10461936;28;20045;-67
2021/08/26 14:34:34;;;;;;;9.68;2.85;;;;;;;21.50;68.78;101351.66;10462305;28;20049;-67
2021/08/26 14:39:45;;;;;;;8.68;2.70;;;;;;;22.85;67.04;101355.44;10461987;28;20060;-66
2021/08/26 14:44:47;;;;;;;9.00;2.97;;;;;;;22.16;67.51;101368.44;10461641;28;20045;-68
2021/08/26 14:49:50;;;;;;;8.90;3.00;;;;;;;22.19;67.24;101357.47;10461157;28;20401;-67
2021/08/26 14:54:52;;;;;;;10.75;3.60;;;;;;;21.27;66.81;101352.97;10461061;28;20052;-66
2021/08/26 14:59:54;;;;;;;13.20;3.08;;;;;;;22.01;66.62;101341.44;10461237;28;20063;-68
2021/08/26 15:04:57;;;;;;;7.90;2.65;;;;;;;22.66;65.84;101336.91;10460696;28;20072;-66
2021/08/26 15:10:00;;;;;;;13.27;3.22;;;;;;;23.29;64.75;101342.06;10460447;28;20052;-68
2021/08/26 15:15:04;;;;;;;10.38;2.80;;;;;;;23.17;63.34;101338.00;10460658;28;20049;-67
2021/08/26 15:20:08;;;;;;;8.73;3.50;;;;;;;22.06;65.11;101349.81;10460206;28;20059;-68
2021/08/26 15:25:10;;;;;;;12.13;3.50;;;;;;;21.31;68.62;101343.69;10460665;28;20493;-69
2021/08/26 15:30:13;;;;;;;13.48;3.63;;;;;;;20.67;70.44;101337.22;10459884;28;20374;-68
2021/08/26 15:35:15;;;;;;;14.77;4.03;;;;;;;21.10;70.27;101339.41;10460053;28;20049;-67
2021/08/26 15:40:18;;;;;;;12.30;3.72;;;;;;;21.75;67.32;101338.63;10459363;28;20421;-67
2021/08/26 15:45:24;;;;;;;6.93;3.28;;;;;;;21.34;68.93;101335.41;10459520;28;20052;-67
2021/08/26 15:50:27;;;;;;;10.48;3.67;;;;;;;20.75;72.54;101346.19;10459276;28;20075;-67
2021/08/26 15:55:50;;;;;;;11.85;3.63;;;;;;;20.76;68.88;101333.72;10458737;28;20064;-67
2021/08/26 16:00:55;;;;;;;10.70;3.95;;;;;;;20.71;68.21;101338.63;10458505;28;20386;-66
2021/08/26 16:05:58;;;;;;;9.15;3.25;;;;;;;20.16;70.83;101339.16;10458443;28;20091;-67
2021/08/26 16:11:00;;;;;;;11.60;3.30;;;;;;;20.21;73.49;101355.53;10458378;28;20049;-67
2021/08/26 16:16:03;;;;;;;12.88;3.47;;;;;;;19.05;81.76;101385.88;10458360;28;20519;-66
2021/08/26 16:21:15;;;;;;;11.35;3.20;;;;;;;17.38;100.00;101395.63;10458125;28;20163;-64
2021/08/26 16:26:21;;;;;;;6.65;2.70;;;;;;;17.68;100.00;101391.56;10457733;28;20049;-66
2021/08/26 16:31:23;;;;;;;11.02;3.20;;;;;;;17.82;100.00;101392.19;10457189;28;20051;-65
2021/08/26 16:36:26;;;;;;;8.35;2.78;;;;;;;17.82;100.00;101388.69;10457273;28;20477;-63
2021/08/26 16:41:34;;;;;;;8.85;3.58;;;;;;;18.06;100.00;101395.69;10457125;28;20045;-65
2021/08/26 16:46:36;;;;;;;9.90;2.60;;;;;;;18.04;100.00;101401.13;10457057;28;20056;-65
2021/08/26 16:51:38;;;;;;;5.78;2.05;;;;;;;17.64;100.00;101396.28;10456866;28;20056;-65
2021/08/26 16:56:41;;;;;;;8.90;2.30;;;;;;;17.82;100.00;101407.25;10456743;28;20045;-64
2021/08/26 17:01:44;;;;;;;13.77;3.45;;;;;;;17.60;100.00;101402.75;10456703;28;20056;-66
2021/08/26 17:06:48;;;;;;;13.20;3.58;;;;;;;17.84;100.00;101413.25;10456578;28;20049;-65
2021/08/26 17:11:51;;;;;;;11.57;4.45;;;;;;;17.58;100.00;101412.63;10456912;28;20071;-64
2021/08/26 17:16:53;;;;;;;6.43;3.30;;;;;;;17.48;100.00;101416.94;10456264;28;20045;-64
2021/08/26 17:21:56;;;;;;;10.85;4.95;;;;;;;17.38;100.00;101412.38;10457339;28;20057;-64
2021/08/26 17:26:58;;;;;;;12.75;3.63;;;;;;;17.38;100.00;101420.31;10455051;28;20061;-66
2021/08/26 17:32:01;;;;;;;10.43;4.22;;;;;;;17.52;100.00;101421.06;10460136;28;20386;-65
2021/08/26 17:37:03;;;;;;;9.73;4.13;;;;;;;17.40;100.00;101426.31;10464284;28;20049;-65
2021/08/26 17:42:06;;;;;;;12.23;3.67;;;;;;;17.52;100.00;101429.84;10463814;28;20388;-66
2021/08/26 17:47:09;;;;;;;11.05;2.90;;;;;;;17.79;100.00;101426.84;10463691;28;20053;-66
2021/08/26 17:52:11;;;;;;;12.60;4.20;;;;;;;17.35;100.00;101438.19;10463646;28;20045;-66
2021/08/26 17:57:13;;;;;;;11.50;3.90;;;;;;;16.91;100.00;101445.88;10464264;28;20056;-66
2021/08/26 18:02:16;;;;;;;8.65;3.45;;;;;;;17.05;100.00;101458.94;10463230;28;20064;-67
2021/08/26 18:07:18;;;;;;;11.70;3.95;;;;;;;16.75;100.00;101466.44;10463404;28;20505;-65
2021/08/26 18:12:21;;;;;;;9.50;2.70;;;;;;;16.64;100.00;101469.84;10462750;28;20048;-66
2021/08/26 18:17:23;;;;;;;6.13;1.90;;;;;;;16.56;100.00;101475.72;10462938;28;20055;-66
2021/08/26 18:22:25;;;;;;;6.88;2.08;;;;;;;16.27;100.00;101472.50;10462344;28;20056;-65
2021/08/26 18:27:27;;;;;;;8.05;1.40;;;;;;;16.03;100.00;101483.81;10462349;28;20045;-66
2021/08/26 18:32:30;;;;;;;3.50;1.27;;;;;;;15.74;100.00;101491.94;10462688;28;20045;-66
2021/08/26 18:37:32;;;;;;;3.60;0.80;;;;;;;15.73;100.00;101494.66;10462059;28;20429;-66
2021/08/26 18:42:35;;;;;;;5.63;1.00;;;;;;;15.27;100.00;101514.44;10461468;28;20052;-66
2021/08/26 18:47:37;;;;;;;3.92;1.30;;;;;;;15.26;100.00;101525.09;10461906;28;20041;-66
2021/08/26 18:52:40;;;;;;;5.60;1.20;;;;;;;15.04;100.00;101535.22;10461256;28;20045;-66
2021/08/26 18:57:42;;;;;;;2.83;0.90;;;;;;;15.05;100.00;101541.38;10460919;28;20041;-66
2021/08/26 19:02:45;;;;;;;9.73;0.98;;;;;;;14.78;100.00;101549.25;10460875;28;20049;-66
2021/08/26 19:07:47;;;;;;;2.53;0.98;;;;;;;14.62;100.00;101568.66;10460739;28;20073;-65
2021/08/26 19:12:50;;;;;;;5.57;1.13;;;;;;;14.59;100.00;101568.00;10460444;28;20452;-65
2021/08/26 19:17:52;;;;;;;10.25;2.80;;;;;;;14.47;100.00;101572.19;10460194;28;20045;-66
2021/08/26 19:23:15;;;;;;;5.43;1.00;;;;;;;14.49;100.00;101581.72;10460239;28;20106;-65
2021/08/26 19:28:18;;;;;;;6.57;1.35;;;;;;;14.35;100.00;101580.88;10459459;28;20443;-64
2021/08/26 19:33:20;;;;;;;2.53;1.05;;;;;;;14.18;100.00;101584.53;10460178;28;20045;-65
2021/08/26 19:38:22;;;;;;;3.05;0.95;;;;;;;14.01;100.00;101594.25;10459535;28;20041;-67
2021/08/26 19:43:25;;;;;;;3.53;0.80;;;;;;;13.88;100.00;101598.56;10459307;28;20507;-65
2021/08/26 19:48:27;;;;;;;2.10;1.00;;;;;;;13.78;100.00;101600.88;10457877;28;20049;-65
2021/08/26 19:53:29;;;;;;;3.33;1.23;;;;;;;13.60;100.00;101604.56;10458960;28;20052;-64
2021/08/26 19:58:32;;;;;;;1.88;1.08;;;;;;;13.65;100.00;101615.69;10458729;28;20057;-65
2021/08/26 20:03:34;;;;;;;3.03;0.85;;;;;;;13.34;100.00;101614.78;10458622;28;20045;-65
2021/08/26 20:08:37;;;;;;;3.85;0.90;;;;;;;13.49;100.00;101618.34;10458007;28;20378;-65
2021/08/26 20:13:39;;;;;;;5.53;1.10;;;;;;;13.33;100.00;101618.34;10458305;28;20167;-64
2021/08/26 20:18:41;;;;;;;6.85;1.30;;;;;;;13.42;100.00;101632.78;10457593;28;20052;-65
2021/08/26 20:23:44;;;;;;;6.78;1.45;;;;;;;13.66;100.00;101633.16;10457883;28;20053;-64
2021/08/26 20:28:46;;;;;;;6.28;1.75;;;;;;;13.77;100.00;101636.03;10457207;28;20407;-66
2021/08/26 20:33:48;;;;;;;3.47;1.30;;;;;;;13.61;100.00;101645.75;10457532;28;20405;-65
2021/08/26 20:38:52;;;;;;;7.72;1.48;;;;;;;13.52;100.00;101647.13;10457303;28;20140;-64
2021/08/26 20:43:54;;;;;;;8.35;1.52;;;;;;;13.51;100.00;101650.66;10457542;28;20049;-65
2021/08/26 20:48:57;;;;;;;5.30;1.42;;;;;;;13.39;100.00;101652.19;10456795;28;20496;-65
2021/08/26 20:53:59;;;;;;;5.72;1.45;;;;;;;13.59;100.00;101658.13;10455550;28;20045;-65
2021/08/26 20:59:01;;;;;;;4.60;0.90;;;;;;;13.83;100.00;101658.50;10439123;28;20056;-64
2021/08/26 21:04:04;;;;;;;3.25;1.25;;;;;;;13.59;100.00;101648.47;10456584;28;20045;-65
2021/08/26 21:09:06;;;;;;;3.45;1.23;;;;;;;13.34;100.00;101651.59;10456335;28;20394;-64
2021/08/26 21:14:09;;;;;;;4.75;1.33;;;;;;;13.43;100.00;101650.25;10455092;28;20059;-65
2021/08/26 21:19:11;;;;;;;4.28;1.40;;;;;;;13.72;100.00;101649.47;10456192;28;20049;-64
2021/08/26 21:24:13;;;;;;;6.90;1.05;;;;;;;13.38;100.00;101647.88;10455946;28;20053;-65
2021/08/26 21:29:16;;;;;;;6.45;1.60;;;;;;;13.38;100.00;101653.13;10455916;28;20401;-64
2021/08/26 21:34:18;;;;;;;12.93;1.13;;;;;;;13.26;100.00;101656.41;10456506;28;20056;-64
2021/08/26 21:39:20;;;;;;;5.07;1.50;;;;;;;13.35;100.00;101658.59;10455898;28;20072;-65
2021/08/26 21:44:23;;;;;;;2.65;1.17;;;;;;;13.18;100.00;101654.22;10456230;28;20499;-65
2021/08/26 21:49:25;;;;;;;2.33;1.27;;;;;;;13.26;100.00;101654.63;10455479;28;20049;-64
2021/08/26 21:54:27;;;;;;;6.10;1.95;;;;;;;13.26;100.00;101653.78;10455396;28;20401;-65
2021/08/26 21:59:31;;;;;;;2.60;1.10;;;;;;;13.32;100.00;101661.38;10455234;28;20481;-66
2021/08/26 22:04:34;;;;;;;4.47;1.52;;;;;;;13.02;100.00;101662.06;10455288;28;20045;-64
2021/08/26 22:09:37;;;;;;;5.40;1.45;;;;;;;13.24;100.00;101656.50;10455178;28;20045;-64
2021/08/26 22:14:40;;;;;;;11.52;1.63;;;;;;;13.04;100.00;101654.94;10455223;28;20409;-65
2021/08/26 22:19:42;;;;;;;4.82;0.95;;;;;;;13.14;100.00;101666.66;10461629;28;20485;-65
2021/08/26 22:24:45;;;;;;;3.55;1.15;;;;;;;12.90;100.00;101668.00;10462693;28;20052;-66
2021/08/26 22:29:47;;;;;;;4.20;1.00;;;;;;;13.04;100.00;101673.34;10462216;28;20049;-66
2021/08/26 22:34:49;;;;;;;3.45;0.90;;;;;;;13.11;100.00;101669.47;10462438;28;20049;-67
2021/08/26 22:39:52;;;;;;;5.70;1.52;;;;;;;12.75;100.00;101677.53;10461705;28;20049;-68
2021/08/26 22:44:54;;;;;;;5.20;0.85;;;;;;;13.07;100.00;101667.94;10461929;28;20041;-66
2021/08/26 22:49:56;;;;;;;2.88;1.25;;;;;;;12.81;100.00;101667.56;10460021;28;20052;-66
2021/08/26 22:54:59;;;;;;;4.97;1.02;;;;;;;12.87;100.00;101665.53;10461763;28;20049;-67
2021/08/26 23:00:02;;;;;;;6.03;1.05;;;;;;;13.02;100.00;101662.91;10459892;28;20051;-65
2021/08/26 23:05:05;;;;;;;5.47;1.80;;;;;;;12.81;100.00;101664.09;10460923;28;20046;-67